Time;durP1;ratioP1;P1;durP2;ratioP2;P2;SDS_P1;SDS_P2;PMS_P1;PMS_P2;Temp;Humidity;BMP_temperature;BMP_pressure;BME280_temperature;BME280_humidity;BME280_pressure;Samples;Min_cycle;Max_cycle;Signal;HPM_P1;HPM_P2
2021/09/29 00:02:03;;;;;;;6.38;3.10;;;;;;;15.48;66.51;101601.69;5004823;28;20025;-52
2021/09/29 00:04:28;;;;;;;7.10;3.20;;;;;;;15.42;66.81;101596.41;5003058;28;20974;-52
2021/09/29 00:06:53;;;;;;;7.75;3.40;;;;;;;15.39;67.01;101606.88;5001063;28;20057;-53
2021/09/29 00:09:19;;;;;;;9.48;3.17;;;;;;;15.34;67.00;101585.84;5002504;28;20132;-51
2021/09/29 00:11:44;;;;;;;13.35;3.72;;;;;;;15.31;67.06;101580.56;5001222;28;20046;-49
2021/09/29 00:14:10;;;;;;;6.82;3.30;;;;;;;15.32;67.04;101576.19;5005701;28;20061;-49
2021/09/29 00:16:35;;;;;;;6.20;3.20;;;;;;;15.23;67.57;101576.16;5004270;28;20052;-49
2021/09/29 00:19:01;;;;;;;9.30;3.60;;;;;;;15.21;67.74;101577.88;4997921;28;20113;-48
2021/09/29 00:21:26;;;;;;;10.30;3.33;;;;;;;15.17;68.31;101570.88;5002823;28;20041;-49
2021/09/29 00:23:52;;;;;;;7.65;3.42;;;;;;;15.14;67.54;101560.34;5005871;28;20037;-50
2021/09/29 00:26:17;;;;;;;6.35;3.60;;;;;;;15.11;67.45;101558.59;5000211;28;20116;-50
2021/09/29 00:28:42;;;;;;;6.95;3.40;;;;;;;15.15;67.54;101556.84;5007598;28;20038;-50
2021/09/29 00:31:23;;;;;;;7.70;3.85;;;;;;;15.16;67.81;101550.72;4998049;28;20441;-51
2021/09/29 00:33:50;;;;;;;9.85;3.90;;;;;;;15.09;68.02;101547.19;5001218;28;20045;-53
2021/09/29 00:36:16;;;;;;;7.30;3.63;;;;;;;15.16;67.63;101543.72;5005271;28;20412;-50
2021/09/29 00:38:41;;;;;;;8.43;3.92;;;;;;;15.03;68.07;101532.28;5004762;28;20043;-51
2021/09/29 00:41:06;;;;;;;6.88;3.80;;;;;;;15.06;67.95;101534.06;4997210;28;20273;-51
2021/09/29 00:43:32;;;;;;;10.65;3.78;;;;;;;15.01;68.45;101534.00;5003082;28;21118;-49
2021/09/29 00:45:57;;;;;;;6.85;3.88;;;;;;;15.01;67.93;101520.88;5001508;28;20516;-50
2021/09/29 00:48:22;;;;;;;8.18;3.58;;;;;;;15.09;67.75;101523.53;5006052;28;20132;-49
2021/09/29 00:50:49;;;;;;;7.25;3.83;;;;;;;14.98;68.53;101510.38;5005193;28;20811;-53
2021/09/29 00:53:17;;;;;;;6.43;3.47;;;;;;;14.98;68.06;101504.25;5001537;28;20391;-52
2021/09/29 00:55:42;;;;;;;14.82;4.32;;;;;;;14.86;69.15;101507.69;5017061;28;20091;-51
2021/09/29 00:58:08;;;;;;;10.00;3.60;;;;;;;14.81;68.83;101513.78;5003396;28;20077;-53
2021/09/29 01:00:33;;;;;;;7.18;3.78;;;;;;;14.75;68.82;101514.63;5002216;28;20042;-57
2021/09/29 01:03:00;;;;;;;6.78;4.03;;;;;;;14.79;68.77;101512.88;4999211;28;20144;-52
2021/09/29 01:05:25;;;;;;;8.35;3.78;;;;;;;14.84;68.87;101495.41;5002527;28;20031;-53
2021/09/29 01:07:56;;;;;;;8.30;3.80;;;;;;;14.85;68.78;101491.91;5003113;28;20045;-53
2021/09/29 01:10:59;;;;;;;7.25;3.65;;;;;;;14.89;68.28;101489.28;4999695;28;20068;-53
2021/09/29 01:13:52;;;;;;;6.32;3.90;;;;;;;14.89;68.48;101484.03;4992223;28;20048;-50
2021/09/29 01:16:17;;;;;;;12.27;3.90;;;;;;;14.95;68.20;101483.19;5001205;28;20387;-49
2021/09/29 01:18:46;;;;;;;8.07;3.72;;;;;;;14.96;68.16;101479.72;5018543;28;20048;-50
2021/09/29 01:21:13;;;;;;;8.00;3.85;;;;;;;14.99;67.98;101469.25;4994864;28;22474;-50
2021/09/29 01:23:54;;;;;;;8.23;4.05;;;;;;;14.97;68.42;101466.59;4998110;28;20076;-51
2021/09/29 01:26:27;;;;;;;6.85;3.90;;;;;;;14.99;67.87;101461.34;5004697;28;20649;-49
2021/09/29 01:28:57;;;;;;;7.25;3.75;;;;;;;15.02;68.18;101461.34;4997184;28;20452;-50
2021/09/29 01:31:23;;;;;;;7.78;3.80;;;;;;;15.13;67.29;101453.53;5000877;28;20049;-51
2021/09/29 01:33:49;;;;;;;6.45;3.60;;;;;;;15.26;66.71;101455.31;5016498;28;20056;-49
2021/09/29 01:36:19;;;;;;;8.02;4.00;;;;;;;15.37;66.32;101456.22;4999554;28;20041;-52
2021/09/29 01:38:48;;;;;;;8.13;3.83;;;;;;;15.25;67.72;101451.81;5002542;28;20049;-51
2021/09/29 01:41:14;;;;;;;7.72;3.97;;;;;;;15.34;66.39;101449.22;5001989;28;20438;-48
2021/09/29 01:43:40;;;;;;;11.48;4.13;;;;;;;15.37;66.44;101445.72;5001763;28;20045;-53
2021/09/29 01:46:06;;;;;;;8.68;4.20;;;;;;;15.33;67.42;101450.09;5003781;28;20136;-53
2021/09/29 01:48:34;;;;;;;12.40;4.35;;;;;;;15.36;67.10;101439.63;5001129;28;20748;-52
2021/09/29 01:51:00;;;;;;;9.40;4.18;;;;;;;15.41;66.36;101435.25;5009796;28;20076;-51
2021/09/29 01:53:29;;;;;;;12.95;4.38;;;;;;;15.40;66.35;101429.97;5017326;28;20132;-53
2021/09/29 01:55:55;;;;;;;9.75;4.35;;;;;;;15.40;66.54;101430.88;5015780;28;20605;-50
2021/09/29 01:58:20;;;;;;;8.50;4.35;;;;;;;15.44;66.57;101414.22;5001320;28;20115;-54
2021/09/29 02:00:46;;;;;;;9.63;4.43;;;;;;;15.37;67.39;101408.94;5001036;28;20034;-51
2021/09/29 02:03:11;;;;;;;10.75;4.40;;;;;;;15.27;66.70;101410.69;5002442;28;20051;-51
2021/09/29 02:05:37;;;;;;;7.85;4.32;;;;;;;15.30;66.62;101404.56;5000943;28;20080;-51
2021/09/29 02:08:07;;;;;;;8.35;4.22;;;;;;;15.28;66.51;101404.56;5000781;28;20048;-51
2021/09/29 02:10:33;;;;;;;9.25;4.20;;;;;;;15.23;67.03;101400.16;5005480;28;20615;-48
2021/09/29 02:12:59;;;;;;;8.95;4.38;;;;;;;15.18;66.83;101399.28;4995334;28;20247;-52
2021/09/29 02:15:24;;;;;;;10.50;4.13;;;;;;;15.25;66.56;101395.78;5005381;28;20045;-52
2021/09/29 02:17:50;;;;;;;11.35;3.90;;;;;;;15.01;67.18;101396.56;5002638;28;20128;-49
2021/09/29 02:20:18;;;;;;;11.63;3.90;;;;;;;15.23;66.71;101389.66;5002242;28;20523;-53
2021/09/29 02:22:44;;;;;;;8.60;4.00;;;;;;;15.29;66.50;101392.31;4999364;28;20288;-48
2021/09/29 02:25:10;;;;;;;8.57;3.92;;;;;;;15.28;66.64;101387.91;5000341;28;20270;-51
2021/09/29 02:27:35;;;;;;;8.32;4.13;;;;;;;15.32;67.26;101384.41;5002105;28;20305;-50
2021/09/29 02:30:01;;;;;;;8.32;3.88;;;;;;;15.34;66.93;101388.81;5004474;28;20045;-51
2021/09/29 02:32:26;;;;;;;9.63;3.97;;;;;;;15.31;66.80;101374.78;5003713;28;20045;-52
2021/09/29 02:34:52;;;;;;;10.23;4.30;;;;;;;15.36;66.68;101367.81;4995776;28;20037;-52
2021/09/29 02:37:17;;;;;;;6.95;3.65;;;;;;;15.33;66.99;101373.91;4997881;28;20484;-52
2021/09/29 02:39:42;;;;;;;8.00;3.55;;;;;;;15.35;66.38;101384.44;5001724;28;20037;-53
2021/09/29 02:42:08;;;;;;;8.82;3.78;;;;;;;15.31;67.06;101382.66;5002785;28;20021;-51
2021/09/29 02:44:34;;;;;;;7.15;3.90;;;;;;;15.24;67.48;101383.53;5002964;28;20095;-49
2021/09/29 02:47:00;;;;;;;9.50;3.58;;;;;;;15.24;67.08;101379.16;4995289;28;20508;-49
2021/09/29 02:49:26;;;;;;;6.45;3.35;;;;;;;15.23;66.89;101382.66;5004896;28;20069;-49
2021/09/29 02:51:51;;;;;;;8.85;3.67;;;;;;;15.20;67.33;101379.13;5002585;28;20274;-52
2021/09/29 02:54:17;;;;;;;7.18;3.42;;;;;;;15.26;66.52;101377.41;5001835;28;20460;-53
2021/09/29 02:56:42;;;;;;;9.32;3.60;;;;;;;15.32;66.29;101387.03;4999817;28;20528;-51
2021/09/29 02:59:10;;;;;;;10.90;3.50;;;;;;;15.37;65.80;101382.66;4995321;28;20037;-50
2021/09/29 03:01:42;;;;;;;8.70;3.63;;;;;;;15.46;66.01;101387.06;4997572;28;20418;-54
2021/09/29 03:04:08;;;;;;;8.55;3.75;;;;;;;15.46;67.88;101385.31;5002856;28;20100;-52
2021/09/29 03:06:33;;;;;;;10.93;3.85;;;;;;;15.35;69.73;101381.81;4999668;28;20077;-49
2021/09/29 03:08:59;;;;;;;10.00;4.20;;;;;;;15.26;71.39;101373.91;5007475;28;20463;-53
2021/09/29 03:11:24;;;;;;;9.98;3.53;;;;;;;15.19;71.09;101367.75;5003893;28;20099;-51
2021/09/29 03:13:50;;;;;;;10.23;3.97;;;;;;;15.13;71.71;101372.09;4996345;28;20119;-49
2021/09/29 03:16:15;;;;;;;10.73;3.90;;;;;;;15.07;72.54;101374.72;5002759;28;20053;-53
2021/09/29 03:18:41;;;;;;;9.60;4.03;;;;;;;14.97;72.50;101369.44;4999376;28;20397;-53
2021/09/29 03:21:07;;;;;;;9.38;4.05;;;;;;;14.94;72.74;101358.06;4994266;28;20911;-52
2021/09/29 03:23:32;;;;;;;9.88;4.22;;;;;;;14.93;72.91;101362.44;5003072;28;20029;-50
2021/09/29 03:25:58;;;;;;;9.55;3.83;;;;;;;14.90;73.25;101354.53;4999613;28;20563;-51
2021/09/29 03:28:23;;;;;;;7.25;3.30;;;;;;;14.91;73.30;101352.78;5001787;28;20910;-50
2021/09/29 03:30:49;;;;;;;10.00;3.88;;;;;;;14.88;73.70;101352.81;4994838;28;21286;-53
2021/09/29 03:33:14;;;;;;;8.18;3.58;;;;;;;14.78;74.25;101353.63;4998254;28;20405;-51
2021/09/29 03:35:39;;;;;;;9.15;3.92;;;;;;;14.83;74.42;101346.63;5004227;28;20543;-53
2021/09/29 03:38:05;;;;;;;6.70;3.53;;;;;;;14.76;74.60;101347.50;4998636;28;20153;-54
2021/09/29 03:40:30;;;;;;;11.30;3.65;;;;;;;14.81;74.35;101348.41;5001178;28;20033;-49
2021/09/29 03:42:56;;;;;;;10.15;3.90;;;;;;;14.81;74.25;101344.03;4991905;28;20569;-50
2021/09/29 03:45:21;;;;;;;11.60;3.75;;;;;;;14.84;74.07;101336.16;5001972;28;20068;-48
2021/09/29 03:47:47;;;;;;;8.88;3.75;;;;;;;14.81;74.48;101341.41;4999834;28;20033;-52
2021/09/29 03:50:12;;;;;;;9.95;3.63;;;;;;;14.78;74.57;101337.88;4998205;28;20774;-51
2021/09/29 03:52:39;;;;;;;10.35;3.88;;;;;;;14.82;74.71;101334.41;5004114;28;20468;-49
2021/09/29 03:55:06;;;;;;;12.23;3.83;;;;;;;14.82;74.29;101319.50;4993259;28;20408;-48
2021/09/29 03:57:31;;;;;;;8.13;3.70;;;;;;;14.77;74.65;101321.25;5000087;28;20081;-49
2021/09/29 03:59:57;;;;;;;9.38;3.67;;;;;;;14.78;74.76;101327.38;4999942;28;20040;-50
2021/09/29 04:02:22;;;;;;;10.48;3.83;;;;;;;14.65;75.18;101321.19;4999387;28;20280;-52
2021/09/29 04:04:49;;;;;;;8.55;3.70;;;;;;;14.67;75.26;101326.47;5002146;28;20045;-52
2021/09/29 04:07:14;;;;;;;12.88;3.72;;;;;;;14.64;75.44;101327.31;4993452;28;20088;-51
2021/09/29 04:09:39;;;;;;;9.18;3.83;;;;;;;14.64;75.66;101324.69;4999323;28;20049;-52
2021/09/29 04:12:05;;;;;;;13.05;3.88;;;;;;;14.68;75.14;101313.34;5002309;28;20643;-50
2021/09/29 04:14:31;;;;;;;8.70;3.83;;;;;;;14.66;75.16;101312.47;4998537;28;20045;-50
2021/09/29 04:16:56;;;;;;;11.23;3.92;;;;;;;14.64;75.70;101313.34;4996611;28;20060;-49
2021/09/29 04:19:23;;;;;;;11.25;3.80;;;;;;;14.69;75.26;101308.97;5000845;28;20038;-54
2021/09/29 04:21:48;;;;;;;9.38;3.70;;;;;;;14.71;75.24;101304.59;5007117;28;20142;-49
2021/09/29 04:24:13;;;;;;;12.05;3.38;;;;;;;14.76;75.19;101303.75;5001393;28;20160;-51
2021/09/29 04:26:40;;;;;;;9.30;3.38;;;;;;;14.83;74.63;101305.50;5004457;28;20076;-54
2021/09/29 04:29:05;;;;;;;5.53;3.00;;;;;;;14.81;74.71;101299.41;4998656;28;20038;-53
2021/09/29 04:31:31;;;;;;;9.68;2.90;;;;;;;14.79;74.48;101303.75;5004018;28;20574;-50
2021/09/29 04:33:56;;;;;;;9.75;2.95;;;;;;;14.81;74.49;101295.91;5000968;28;20487;-52
2021/09/29 04:36:21;;;;;;;6.55;2.90;;;;;;;14.81;74.76;101299.41;5001094;28;20432;-50
2021/09/29 04:38:48;;;;;;;10.20;3.05;;;;;;;14.85;74.50;101295.91;5004892;28;20408;-53
2021/09/29 04:41:14;;;;;;;9.65;2.80;;;;;;;14.89;74.42;101296.78;5002332;28;20045;-50
2021/09/29 04:43:39;;;;;;;10.40;3.10;;;;;;;14.86;74.41;101291.53;4999532;28;20047;-49
2021/09/29 04:46:05;;;;;;;7.30;2.97;;;;;;;14.81;74.31;101294.16;5000422;28;20045;-49
2021/09/29 04:48:30;;;;;;;12.45;2.60;;;;;;;14.83;74.68;101297.63;5002577;28;20063;-50
2021/09/29 04:50:55;;;;;;;8.38;2.50;;;;;;;14.90;74.22;101290.66;5002850;28;20049;-50
2021/09/29 04:53:21;;;;;;;8.07;2.63;;;;;;;14.84;74.29;101285.41;5003988;28;20600;-52
2021/09/29 04:55:46;;;;;;;7.95;2.55;;;;;;;14.85;74.35;101277.53;5008390;28;20041;-48
2021/09/29 04:58:12;;;;;;;7.22;2.50;;;;;;;14.84;74.37;101280.16;5006383;28;20108;-51
2021/09/29 05:00:38;;;;;;;8.60;2.50;;;;;;;14.84;74.11;101273.16;5003574;28;20048;-51
2021/09/29 05:03:03;;;;;;;6.60;2.70;;;;;;;14.83;74.13;101286.25;4999646;28;20045;-49
2021/09/29 05:05:29;;;;;;;10.75;2.30;;;;;;;14.76;74.27;101281.91;5002908;28;20081;-52
2021/09/29 05:07:58;;;;;;;8.07;2.17;;;;;;;14.75;74.00;101281.00;5002230;28;20220;-52
2021/09/29 05:11:02;;;;;;;10.00;2.63;;;;;;;14.71;74.17;101273.97;5018445;28;20616;-48
2021/09/29 05:13:30;;;;;;;8.55;2.65;;;;;;;14.73;73.94;101284.50;5009844;28;20118;-51
2021/09/29 05:15:57;;;;;;;6.50;2.30;;;;;;;14.70;73.98;101274.00;5005234;28;20593;-50
2021/09/29 05:18:22;;;;;;;7.50;2.80;;;;;;;14.69;73.85;101282.75;5002540;28;20033;-53
2021/09/29 05:20:49;;;;;;;7.65;2.47;;;;;;;14.66;74.25;101275.72;5001111;28;20415;-49
2021/09/29 05:23:14;;;;;;;9.52;2.63;;;;;;;14.65;74.11;101281.84;4997992;28;20068;-51
2021/09/29 05:25:40;;;;;;;7.18;2.55;;;;;;;14.68;74.32;101279.25;5004487;28;20421;-53
2021/09/29 05:28:12;;;;;;;7.40;2.53;;;;;;;14.68;74.60;101287.09;5002088;28;20043;-50
2021/09/29 05:30:37;;;;;;;8.63;2.70;;;;;;;14.68;75.30;101283.59;5003167;28;20047;-49
2021/09/29 05:33:02;;;;;;;7.00;2.50;;;;;;;14.71;74.74;101280.97;4997844;28;20425;-52
2021/09/29 05:35:28;;;;;;;6.60;2.50;;;;;;;14.74;74.29;101276.63;5013622;28;20144;-53
2021/09/29 05:37:53;;;;;;;7.03;2.65;;;;;;;14.72;74.02;101269.63;5003463;28;20041;-51
2021/09/29 05:40:19;;;;;;;9.95;3.15;;;;;;;14.74;74.32;101276.63;5003172;28;20136;-51
2021/09/29 05:42:44;;;;;;;11.98;3.00;;;;;;;14.67;74.15;101293.22;5005265;28;20045;-55
2021/09/29 05:45:10;;;;;;;10.68;2.90;;;;;;;14.77;73.64;101289.75;4996061;28;20722;-48
2021/09/29 05:47:35;;;;;;;6.97;3.08;;;;;;;14.80;73.55;101292.41;5002069;28;20060;-51
2021/09/29 05:50:01;;;;;;;6.10;2.97;;;;;;;14.84;73.51;101296.78;5015787;28;20067;-48
2021/09/29 05:52:26;;;;;;;9.30;3.00;;;;;;;14.79;73.64;101298.50;5004421;28;20176;-52
2021/09/29 05:54:51;;;;;;;6.32;2.70;;;;;;;14.82;73.18;101300.28;5002142;28;20474;-53
2021/09/29 05:57:17;;;;;;;6.55;2.80;;;;;;;14.87;72.57;101290.66;5000744;28;20580;-48
2021/09/29 05:59:42;;;;;;;8.05;3.30;;;;;;;14.84;72.59;101283.66;5001734;28;20049;-52
2021/09/29 06:02:08;;;;;;;6.10;3.05;;;;;;;14.92;72.31;101283.66;5001880;28;21200;-50
2021/09/29 06:04:34;;;;;;;6.75;2.75;;;;;;;14.90;72.53;101294.16;5000171;28;20593;-53
2021/09/29 06:06:59;;;;;;;6.25;3.15;;;;;;;14.94;71.62;101293.28;4995711;28;20052;-49
2021/09/29 06:09:25;;;;;;;7.25;3.08;;;;;;;14.89;72.47;101288.91;5001455;28;20037;-52
2021/09/29 06:11:50;;;;;;;8.57;3.20;;;;;;;14.96;71.97;101285.41;5005615;28;20481;-53
2021/09/29 06:14:16;;;;;;;8.77;3.40;;;;;;;15.00;71.58;101289.81;4999703;28;20045;-50
2021/09/29 06:16:47;;;;;;;4.68;3.10;;;;;;;14.99;71.83;101291.56;5002275;28;20050;-47
2021/09/29 06:19:17;;;;;;;7.88;3.40;;;;;;;15.01;72.19;101289.81;5010332;28;20060;-50
2021/09/29 06:21:43;;;;;;;7.72;3.22;;;;;;;15.00;71.95;101285.41;5001442;28;20364;-51
2021/09/29 06:24:09;;;;;;;8.43;3.60;;;;;;;15.02;71.77;101288.06;5002789;28;20051;-48
2021/09/29 06:26:35;;;;;;;7.20;3.47;;;;;;;15.08;71.56;101293.31;5002387;28;20319;-49
2021/09/29 06:29:00;;;;;;;9.00;3.65;;;;;;;15.10;71.64;101290.69;4998108;28;20556;-51
2021/09/29 06:31:26;;;;;;;7.60;3.50;;;;;;;15.11;71.78;101301.22;4999191;28;20049;-48
2021/09/29 06:33:52;;;;;;;8.57;3.30;;;;;;;15.14;71.75;101302.94;4996726;28;20083;-48
2021/09/29 06:36:17;;;;;;;7.15;3.30;;;;;;;15.10;72.31;101306.47;4999695;28;20075;-49
2021/09/29 06:38:43;;;;;;;7.07;3.13;;;;;;;15.11;72.26;101308.22;5001639;28;20033;-50
2021/09/29 06:41:08;;;;;;;7.07;3.22;;;;;;;15.10;71.89;101306.47;4996382;28;20489;-51
2021/09/29 06:43:34;;;;;;;9.18;3.40;;;;;;;15.15;72.28;101315.22;4999724;28;20258;-48
2021/09/29 06:45:59;;;;;;;8.68;3.22;;;;;;;15.10;72.56;101315.22;5005110;28;20513;-48
2021/09/29 06:48:24;;;;;;;5.88;3.00;;;;;;;15.16;72.46;101316.97;4995522;28;20076;-53
2021/09/29 06:50:50;;;;;;;5.18;2.60;;;;;;;15.19;72.37;101316.97;4997504;28;20152;-50
2021/09/29 06:53:20;;;;;;;4.82;2.25;;;;;;;15.18;72.25;101315.25;4998994;28;20521;-53
2021/09/29 06:55:47;;;;;;;6.95;2.15;;;;;;;15.18;72.48;101317.88;5003091;28;20268;-48
2021/09/29 06:58:12;;;;;;;5.53;2.30;;;;;;;15.14;72.85;101322.22;4995702;28;20588;-53
2021/09/29 07:00:38;;;;;;;4.25;1.90;;;;;;;15.08;73.22;101319.59;5002404;28;20262;-49
2021/09/29 07:03:03;;;;;;;6.00;1.90;;;;;;;15.10;73.55;101323.09;4995858;28;20472;-49
2021/09/29 07:05:29;;;;;;;4.50;1.73;;;;;;;15.08;73.68;101324.81;5000707;28;20553;-49
2021/09/29 07:07:55;;;;;;;5.10;1.90;;;;;;;15.02;74.78;101319.56;5000635;28;20144;-48
2021/09/29 07:10:23;;;;;;;9.32;2.00;;;;;;;14.94;75.41;101329.19;4999458;28;20049;-48
2021/09/29 07:12:49;;;;;;;4.68;1.60;;;;;;;14.97;74.92;101334.44;5001797;28;20064;-52
2021/09/29 07:15:14;;;;;;;8.30;1.65;;;;;;;14.92;75.51;101344.94;4998076;28;20551;-50
2021/09/29 07:17:40;;;;;;;4.18;1.50;;;;;;;14.92;75.61;101350.19;4993636;28;20033;-48
2021/09/29 07:20:11;;;;;;;6.78;1.33;;;;;;;14.94;75.25;101351.03;4994034;28;20132;-50
2021/09/29 07:22:37;;;;;;;3.95;1.42;;;;;;;14.70;76.02;101360.59;5000332;28;20310;-48
2021/09/29 07:25:03;;;;;;;5.05;1.60;;;;;;;14.79;75.66;101365.88;4992132;28;20159;-49
2021/09/29 07:27:28;;;;;;;6.40;1.98;;;;;;;14.77;75.58;101375.47;4999749;28;20586;-48
2021/09/29 07:29:54;;;;;;;8.63;1.80;;;;;;;14.74;75.77;101379.00;4998300;28;20038;-51
2021/09/29 07:32:19;;;;;;;10.85;2.00;;;;;;;14.68;76.44;101372.84;5005292;28;20406;-52
2021/09/29 07:34:44;;;;;;;9.88;2.15;;;;;;;14.64;76.26;101365.81;5000213;28;20460;-49
2021/09/29 07:37:10;;;;;;;5.55;1.80;;;;;;;14.61;75.47;101375.44;4987456;28;20045;-51
2021/09/29 07:39:35;;;;;;;6.47;2.10;;;;;;;14.53;75.94;101378.88;5000500;28;20494;-48
2021/09/29 07:42:01;;;;;;;5.65;1.88;;;;;;;14.40;76.60;101377.94;5000471;28;20045;-48
2021/09/29 07:44:26;;;;;;;4.57;1.60;;;;;;;14.35;76.59;101373.50;5001309;28;20429;-51
2021/09/29 07:46:51;;;;;;;11.80;1.70;;;;;;;14.11;77.10;101363.72;4997475;28;20033;-52
2021/09/29 07:49:21;;;;;;;2.72;1.20;;;;;;;13.85;77.16;101374.00;4995130;28;20205;-48
2021/09/29 07:51:47;;;;;;;5.88;1.40;;;;;;;13.97;77.46;101368.88;4999020;28;20557;-49
2021/09/29 07:54:12;;;;;;;4.93;1.40;;;;;;;14.03;77.44;101363.66;4998500;28;20061;-53
2021/09/29 07:56:38;;;;;;;3.28;1.30;;;;;;;14.00;77.54;101362.78;4996449;28;20041;-53
2021/09/29 07:59:03;;;;;;;3.88;1.40;;;;;;;14.03;77.79;101384.63;4997071;28;20489;-50
2021/09/29 08:01:29;;;;;;;4.85;1.52;;;;;;;14.13;77.23;101389.09;5009353;28;20100;-53
2021/09/29 08:03:54;;;;;;;3.40;1.38;;;;;;;14.14;76.99;101395.22;5003942;28;20165;-48
2021/09/29 08:06:20;;;;;;;3.97;1.42;;;;;;;14.08;76.96;101392.56;5005305;28;20103;-49
2021/09/29 08:08:48;;;;;;;2.80;1.58;;;;;;;14.04;76.97;101380.28;5003510;28;20052;-48
2021/09/29 08:11:15;;;;;;;3.95;1.52;;;;;;;14.02;77.18;101380.28;5002387;28;20417;-50
2021/09/29 08:13:41;;;;;;;4.00;1.63;;;;;;;14.02;77.36;101384.66;4999460;28;20049;-51
2021/09/29 08:16:07;;;;;;;3.33;1.40;;;;;;;14.00;77.61;101384.63;5004324;28;20537;-53
2021/09/29 08:18:32;;;;;;;3.72;1.45;;;;;;;14.06;77.62;101384.69;5004698;28;20049;-49
2021/09/29 08:21:00;;;;;;;2.38;1.60;;;;;;;14.05;77.74;101385.53;4996685;28;20111;-53
2021/09/29 08:23:38;;;;;;;4.43;1.60;;;;;;;14.00;77.56;101363.66;5006419;28;20647;-48
2021/09/29 08:26:30;;;;;;;3.53;1.80;;;;;;;13.99;77.91;101358.41;5005081;28;20052;-52
2021/09/29 08:29:22;;;;;;;3.13;1.50;;;;;;;14.05;77.88;101361.06;5000292;28;20110;-49
2021/09/29 08:32:07;;;;;;;2.67;1.42;;;;;;;14.13;77.47;101377.72;5017241;28;20051;-48
2021/09/29 08:39:57;;;;;;;5.38;1.52;;;;;;;14.30;77.35;101398.81;4999989;28;20479;-48
2021/09/29 08:47:53;;;;;;;4.75;1.20;;;;;;;14.41;76.68;101381.44;5004862;28;20030;-48
2021/09/29 08:50:25;;;;;;;3.00;0.88;;;;;;;14.50;76.31;101386.75;5003877;28;20098;-48
2021/09/29 09:17:33;;;;;;;4.63;1.50;;;;;;;14.60;76.81;101413.03;5002721;28;20044;-47
2021/09/29 09:20:20;;;;;;;7.63;2.10;;;;;;;14.60;76.47;101409.53;5002231;28;20049;-48
2021/09/29 09:22:51;;;;;;;6.57;2.40;;;;;;;14.51;76.43;101431.38;4999491;28;20111;-49
2021/09/29 09:25:17;;;;;;;5.50;2.15;;;;;;;14.49;76.83;101443.59;5019311;28;20095;-47
2021/09/29 09:27:46;;;;;;;4.35;2.00;;;;;;;14.48;76.72;101449.69;5006648;28;20479;-50
2021/09/29 09:30:30;;;;;;;4.40;1.83;;;;;;;14.42;77.05;101444.41;5000955;28;21372;-48
2021/09/29 09:32:56;;;;;;;5.93;2.33;;;;;;;14.37;76.90;101445.22;4996854;28;20476;-49
2021/09/29 09:35:23;;;;;;;5.28;2.47;;;;;;;14.38;76.62;101442.63;5004983;28;20541;-48
2021/09/29 09:37:55;;;;;;;5.43;2.80;;;;;;;14.38;77.09;101442.63;4999739;28;20490;-49
2021/09/29 09:40:22;;;;;;;5.97;2.53;;;;;;;14.38;76.87;101455.75;5004541;28;20042;-48
2021/09/29 09:42:53;;;;;;;6.13;3.40;;;;;;;14.40;77.57;101450.50;4998072;28;20042;-47
2021/09/29 09:45:28;;;;;;;7.43;3.40;;;;;;;14.48;77.59;101451.44;4999401;28;20094;-47
2021/09/29 09:47:54;;;;;;;6.78;3.10;;;;;;;14.64;77.47;101461.16;5002648;28;20070;-49
2021/09/29 09:50:29;;;;;;;8.50;3.25;;;;;;;14.70;77.32;101455.09;5013190;28;20441;-48
2021/09/29 09:52:55;;;;;;;4.93;2.70;;;;;;;14.74;76.35;101452.47;4995103;28;20175;-51
2021/09/29 09:55:23;;;;;;;8.50;2.97;;;;;;;14.80;76.93;101447.25;5000946;28;20049;-51
2021/09/29 09:57:57;;;;;;;6.63;2.70;;;;;;;14.89;76.66;101442.03;4998998;28;20587;-47
2021/09/29 10:00:27;;;;;;;6.20;2.60;;;;;;;15.05;75.35;101443.00;4998774;28;20056;-50
2021/09/29 10:02:55;;;;;;;7.38;2.50;;;;;;;15.06;74.89;101457.03;4998868;28;20056;-51
2021/09/29 10:05:23;;;;;;;8.13;2.10;;;;;;;15.04;74.74;101459.63;5001333;28;20153;-49
2021/09/29 10:07:51;;;;;;;6.28;1.52;;;;;;;15.12;72.87;101470.16;4997711;28;20041;-48
2021/09/29 10:11:21;;;;;;;5.25;1.33;;;;;;;15.34;71.97;101466.75;4998676;28;20064;-49
2021/09/29 10:27:16;;;;;;;5.20;1.60;;;;;;;15.95;68.63;101507.22;4990660;28;20117;-50
2021/09/29 10:29:50;;;;;;;6.72;1.60;;;;;;;16.07;68.32;101514.25;4999125;28;20057;-52
2021/09/29 10:32:26;;;;;;;4.55;1.65;;;;;;;16.22;67.46;101515.13;4996475;28;20108;-47
2021/09/29 10:40:54;;;;;;;7.57;1.75;;;;;;;16.81;64.47;101519.53;5001424;28;20495;-49
2021/09/29 10:43:38;;;;;;;4.90;2.05;;;;;;;16.81;65.09;101522.16;5014670;28;20741;-50
2021/09/29 11:33:38;;;;;;;4.80;1.02;;;;;;;17.92;56.07;101563.94;4986576;28;20033;-49
2021/09/29 12:11:25;;;;;;;3.45;1.00;;;;;;;17.36;53.74;101623.03;4999520;28;20442;-48
2021/09/29 12:14:02;;;;;;;5.38;1.08;;;;;;;17.49;56.03;101642.34;5002419;28;20042;-51
2021/09/29 12:16:33;;;;;;;3.85;1.10;;;;;;;17.52;54.61;101639.66;5007726;28;20047;-48
2021/09/29 12:18:59;;;;;;;3.58;0.90;;;;;;;17.44;54.02;101644.94;5010436;28;20053;-49
2021/09/29 12:21:41;;;;;;;6.20;1.23;;;;;;;17.59;54.21;101654.59;5004392;28;20164;-48
2021/09/29 12:24:10;;;;;;;5.07;1.00;;;;;;;17.85;54.22;101644.00;5001945;28;20643;-52
2021/09/29 12:26:50;;;;;;;3.78;0.90;;;;;;;17.69;52.66;101655.47;5008577;28;20155;-48
2021/09/29 12:29:26;;;;;;;6.03;0.88;;;;;;;17.73;52.43;101662.50;4996603;28;20699;-49
2021/09/29 12:32:05;;;;;;;6.20;1.23;;;;;;;17.82;53.53;101658.06;5003212;28;20471;-52
2021/09/29 12:35:01;;;;;;;6.50;1.23;;;;;;;18.18;53.37;101654.38;4999636;28;20058;-48
2021/09/29 12:37:19;;;;;;;4.38;1.08;;;;;;;18.64;51.64;101672.59;5002281;28;20080;-49
2021/09/29 12:39:44;;;;;;;4.55;1.23;;;;;;;18.79;51.69;101663.66;5006897;28;20132;-48
2021/09/29 12:42:10;;;;;;;7.70;1.05;;;;;;;18.94;50.25;101666.22;4999574;28;20553;-50
2021/09/29 12:44:54;;;;;;;3.58;1.00;;;;;;;18.91;50.37;101674.13;5003599;28;20488;-48
2021/09/29 12:49:44;;;;;;;3.53;0.95;;;;;;;19.16;50.16;101674.81;4996313;28;20103;-50
2021/09/29 12:52:10;;;;;;;3.38;0.90;;;;;;;18.90;50.03;101675.94;5002560;28;20073;-49
2021/09/29 12:54:40;;;;;;;6.05;1.08;;;;;;;18.68;50.08;101678.72;5003066;28;20115;-48
2021/09/29 12:57:05;;;;;;;5.63;1.10;;;;;;;18.73;50.26;101682.22;4997530;28;20689;-49
2021/09/29 12:59:33;;;;;;;6.43;1.10;;;;;;;18.48;49.72;101687.63;5001886;28;20049;-52
2021/09/29 13:01:58;;;;;;;3.70;0.90;;;;;;;18.69;52.02;101686.66;5000313;28;20073;-49
2021/09/29 13:04:25;;;;;;;3.55;1.00;;;;;;;18.67;49.80;101691.06;5002704;28;20600;-49
2021/09/29 13:06:50;;;;;;;6.30;1.13;;;;;;;18.43;49.43;101693.81;5002310;28;20049;-53
2021/09/29 13:09:16;;;;;;;5.72;1.20;;;;;;;18.20;49.92;101704.50;4999884;28;20431;-53
2021/09/29 13:11:41;;;;;;;6.53;1.20;;;;;;;17.93;50.85;101694.94;4998604;28;20044;-54
2021/09/29 13:14:07;;;;;;;3.75;1.20;;;;;;;17.78;50.65;101703.81;5006042;28;20144;-51
2021/09/29 13:16:32;;;;;;;8.48;1.17;;;;;;;17.90;50.84;101707.28;5005608;28;20037;-50
2021/09/29 13:19:04;;;;;;;5.10;0.90;;;;;;;17.93;51.36;101712.56;4996653;28;20045;-50
2021/09/29 13:21:37;;;;;;;3.22;1.20;;;;;;;17.82;49.92;101710.81;5002803;28;20380;-49
2021/09/29 13:24:11;;;;;;;4.18;1.00;;;;;;;17.97;51.28;101723.09;5004567;28;20389;-50
2021/09/29 13:37:43;;;;;;;6.93;1.20;;;;;;;17.53;51.29;101749.53;5001181;28;20044;-49
2021/09/29 13:40:09;;;;;;;5.28;1.10;;;;;;;17.60;50.93;101753.94;5002530;28;20041;-49
2021/09/29 13:42:34;;;;;;;6.75;1.00;;;;;;;17.42;51.93;101752.19;5006489;28;20445;-51
2021/09/29 13:45:00;;;;;;;5.70;0.82;;;;;;;17.40;52.06;101763.59;4988344;28;20037;-50
2021/09/29 13:47:26;;;;;;;7.35;1.10;;;;;;;17.46;51.86;101771.50;5004709;28;20425;-49
2021/09/29 13:49:52;;;;;;;5.30;1.00;;;;;;;17.37;51.62;101767.13;5000982;28;20072;-50
2021/09/29 13:52:22;;;;;;;6.47;1.10;;;;;;;17.28;52.28;101771.50;4999452;28;20236;-49
2021/09/29 13:54:52;;;;;;;5.85;0.90;;;;;;;17.23;50.46;101781.16;4996165;28;20702;-51
2021/09/29 13:57:21;;;;;;;9.80;0.90;;;;;;;17.32;52.04;101775.91;5000544;28;20190;-52
2021/09/29 14:02:39;;;;;;;5.90;1.10;;;;;;;17.74;50.23;101783.81;5001520;28;20132;-49